createdAt,value
2023-11-18T00:00:36.204Z,40.95
2023-11-18T00:03:07.152Z,39.00
2023-11-18T00:05:36.009Z,45.58
2023-11-18T00:08:04.662Z,42.95
2023-11-18T00:10:33.023Z,38.17
2023-11-18T00:13:03.184Z,48.05
2023-11-18T00:15:30.627Z,40.38
2023-11-18T00:17:59.024Z,35.60
2023-11-18T00:20:28.920Z,31.35
2023-11-18T00:22:57.265Z,36.25
2023-11-18T00:25:26.010Z,37.90
2023-11-18T00:27:55.379Z,31.45
2023-11-18T00:30:23.668Z,36.53
2023-11-18T00:32:52.271Z,41.83
2023-11-18T00:35:21.296Z,41.63
2023-11-18T00:37:51.730Z,34.83
2023-11-18T00:40:20.308Z,41.15
2023-11-18T00:42:50.577Z,39.40
2023-11-18T00:45:19.519Z,40.70
2023-11-18T00:47:48.105Z,38.17
2023-11-18T00:50:16.921Z,40.22
2023-11-18T00:52:45.603Z,37.72
2023-11-18T00:55:15.709Z,36.00
2023-11-18T00:57:43.997Z,35.78
2023-11-18T01:00:18.169Z,35.17
2023-11-18T01:02:48.191Z,39.65
2023-11-18T01:05:16.833Z,42.83
2023-11-18T01:07:45.779Z,44.25
2023-11-18T01:10:15.756Z,45.10
2023-11-18T01:12:45.609Z,43.00
2023-11-18T01:15:15.710Z,46.67
2023-11-18T01:17:45.964Z,46.58
2023-11-18T01:20:15.293Z,43.20
2023-11-18T01:22:46.990Z,44.63
2023-11-18T01:25:20.072Z,42.08
2023-11-18T01:27:49.303Z,40.47
2023-11-18T01:30:17.942Z,43.05
2023-11-18T01:32:47.862Z,35.10
2023-11-18T01:35:16.272Z,33.50
2023-11-18T01:37:45.170Z,35.55
2023-11-18T01:40:16.898Z,35.30
2023-11-18T01:42:47.960Z,31.85
2023-11-18T01:45:18.065Z,33.50
2023-11-18T01:47:50.156Z,32.03
2023-11-18T01:50:20.629Z,35.22
2023-11-18T01:52:50.868Z,29.70
2023-11-18T01:55:20.006Z,31.45
2023-11-18T01:57:52.256Z,29.88
2023-11-18T02:00:21.474Z,27.10
2023-11-18T02:02:50.793Z,26.85
2023-11-18T02:05:19.664Z,26.05
2023-11-18T02:07:49.896Z,25.25
2023-11-18T02:10:19.315Z,25.42
2023-11-18T02:13:00.613Z,25.88
2023-11-18T02:15:33.298Z,26.63
2023-11-18T02:18:06.324Z,23.70
2023-11-18T02:20:37.211Z,22.50
2023-11-18T02:23:08.894Z,22.98
2023-11-18T02:25:49.033Z,25.08
2023-11-18T02:28:18.968Z,22.88
2023-11-18T02:30:50.408Z,24.15
2023-11-18T02:33:29.766Z,25.17
2023-11-18T02:36:09.981Z,25.25
2023-11-18T02:38:48.357Z,25.98
2023-11-18T02:41:21.058Z,25.00
2023-11-18T02:43:52.111Z,24.92
2023-11-18T02:46:23.071Z,25.20
2023-11-18T02:48:55.200Z,23.88
2023-11-18T02:51:23.999Z,24.75
2023-11-18T02:53:52.466Z,24.25
2023-11-18T02:56:23.172Z,22.92
2023-11-18T02:58:51.616Z,23.40
2023-11-18T03:01:22.569Z,25.33
2023-11-18T03:03:51.227Z,22.80
2023-11-18T03:06:19.657Z,23.20
2023-11-18T03:08:48.374Z,23.67
2023-11-18T03:11:16.982Z,21.98
2023-11-18T03:13:48.374Z,25.85
2023-11-18T03:16:18.175Z,25.45
2023-11-18T03:18:46.754Z,23.05
2023-11-18T03:21:17.070Z,21.48
2023-11-18T03:23:45.932Z,24.13
2023-11-18T03:26:14.532Z,21.52
2023-11-18T03:28:43.715Z,22.38
2023-11-18T03:31:14.438Z,25.17
2023-11-18T03:33:43.139Z,23.08
2023-11-18T03:36:14.416Z,19.13
2023-11-18T03:38:43.361Z,22.30
2023-11-18T03:41:13.385Z,23.15
2023-11-18T03:43:42.131Z,20.67
2023-11-18T03:46:12.682Z,20.63
2023-11-18T03:48:42.003Z,21.38
2023-11-18T03:51:10.854Z,20.48
2023-11-18T03:53:39.586Z,22.67
2023-11-18T03:56:09.445Z,20.60
2023-11-18T03:58:38.723Z,23.27
2023-11-18T04:01:08.292Z,19.88
2023-11-18T04:03:39.354Z,22.10
2023-11-18T04:06:13.088Z,21.50
2023-11-18T04:08:45.291Z,21.80
2023-11-18T04:11:15.554Z,21.10
2023-11-18T04:13:45.860Z,19.55
2023-11-18T04:16:17.359Z,18.23
2023-11-18T04:18:52.407Z,20.35
2023-11-18T04:21:23.752Z,18.73
2023-11-18T04:23:53.360Z,18.85
2023-11-18T04:26:26.494Z,19.35
2023-11-18T04:28:56.657Z,18.63
2023-11-18T04:31:29.308Z,20.63
2023-11-18T04:34:03.665Z,18.75
2023-11-18T04:36:39.107Z,19.73
2023-11-18T04:39:15.392Z,20.08
2023-11-18T04:41:49.409Z,17.57
2023-11-18T04:44:22.169Z,20.40
2023-11-18T04:46:52.913Z,17.95
2023-11-18T04:49:24.768Z,19.23
2023-11-18T04:51:54.997Z,20.05
2023-11-18T04:54:26.486Z,19.60
2023-11-18T04:56:55.392Z,17.08
2023-11-18T04:59:23.926Z,17.60
2023-11-18T05:01:54.465Z,19.80
2023-11-18T05:04:24.677Z,19.77
2023-11-18T05:06:54.028Z,19.30
2023-11-18T05:09:22.386Z,18.38
2023-11-18T05:11:52.918Z,18.42
2023-11-18T05:14:25.003Z,18.70
2023-11-18T05:16:55.492Z,17.05
2023-11-18T05:19:30.445Z,17.90
2023-11-18T05:22:01.826Z,19.80
2023-11-18T05:24:35.849Z,20.35
2023-11-18T05:27:06.165Z,17.50
2023-11-18T05:29:36.814Z,20.17
2023-11-18T05:32:07.245Z,17.75
2023-11-18T05:34:38.121Z,18.70
2023-11-18T05:37:07.291Z,18.40
2023-11-18T05:39:44.082Z,18.33
2023-11-18T05:42:13.120Z,19.20
2023-11-18T05:44:44.078Z,19.60
2023-11-18T05:47:14.954Z,19.05
2023-11-18T05:49:46.175Z,19.98
2023-11-18T05:52:16.220Z,17.65
2023-11-18T05:54:45.536Z,17.00
2023-11-18T05:57:14.913Z,20.63
2023-11-18T05:59:44.112Z,19.05
2023-11-18T06:02:18.958Z,17.48
2023-11-18T06:04:50.924Z,19.02
2023-11-18T06:07:20.669Z,20.15
2023-11-18T06:09:50.102Z,17.98
2023-11-18T06:12:19.309Z,20.15
2023-11-18T06:14:50.407Z,18.67
2023-11-18T06:17:20.669Z,17.92
2023-11-18T06:19:51.600Z,17.73
2023-11-18T06:22:23.632Z,18.92
2023-11-18T06:24:55.793Z,18.35
2023-11-18T06:27:25.806Z,20.73
2023-11-18T06:29:56.025Z,19.00
2023-11-18T06:32:27.192Z,19.35
2023-11-18T06:34:58.376Z,20.15
2023-11-18T06:37:28.314Z,18.98
2023-11-18T06:39:58.203Z,18.23
2023-11-18T06:42:27.153Z,18.48
2023-11-18T06:44:56.317Z,18.98
2023-11-18T06:47:25.664Z,19.42
2023-11-18T06:49:54.336Z,18.17
2023-11-18T06:52:24.365Z,20.77
2023-11-18T06:54:53.102Z,18.45
2023-11-18T06:57:21.799Z,17.25
2023-11-18T06:59:50.944Z,16.60
2023-11-18T07:02:20.444Z,16.48
2023-11-18T07:04:50.219Z,18.95
2023-11-18T07:07:19.675Z,21.48
2023-11-18T07:09:52.565Z,20.13
2023-11-18T07:12:23.629Z,19.10
2023-11-18T07:14:53.079Z,19.05
2023-11-18T07:17:23.133Z,17.05
2023-11-18T07:19:52.673Z,18.55
2023-11-18T07:22:22.010Z,17.83
2023-11-18T07:24:55.193Z,16.77
2023-11-18T07:27:32.135Z,16.88
2023-11-18T07:30:01.296Z,18.13
2023-11-18T07:32:31.394Z,17.20
2023-11-18T07:35:01.917Z,17.70
2023-11-18T07:37:34.571Z,23.30
2023-11-18T07:40:07.183Z,16.17
2023-11-18T07:42:39.102Z,18.85
2023-11-18T07:45:19.040Z,17.73
2023-11-18T07:47:50.052Z,19.83
2023-11-18T07:50:21.258Z,17.58
2023-11-18T07:52:50.636Z,18.73
2023-11-18T07:55:20.909Z,17.63
2023-11-18T07:57:49.752Z,18.30
2023-11-18T08:00:19.274Z,18.52
2023-11-18T08:02:48.767Z,19.52
2023-11-18T08:05:20.668Z,18.95
2023-11-18T08:07:49.934Z,19.40
2023-11-18T08:10:21.096Z,20.05
2023-11-18T08:12:50.371Z,17.98
2023-11-18T08:15:20.049Z,20.67
2023-11-18T08:17:50.740Z,17.77
2023-11-18T08:20:20.355Z,17.23
2023-11-18T08:22:49.276Z,20.05
2023-11-18T08:25:20.320Z,15.85
2023-11-18T08:27:50.149Z,18.52
2023-11-18T08:30:19.629Z,17.77
2023-11-18T08:32:50.260Z,16.33
2023-11-18T08:35:19.815Z,16.85
2023-11-18T08:37:50.065Z,17.98
2023-11-18T08:40:23.506Z,17.48
2023-11-18T08:42:57.769Z,16.77
2023-11-18T08:45:31.114Z,16.35
2023-11-18T08:48:03.923Z,15.18
2023-11-18T08:50:35.109Z,15.52
2023-11-18T08:53:07.178Z,14.82
2023-11-18T08:55:52.831Z,15.57
2023-11-18T08:58:23.562Z,17.13
2023-11-18T09:01:02.796Z,14.85
2023-11-18T09:03:36.287Z,15.50
2023-11-18T09:06:13.351Z,16.17
2023-11-18T09:08:44.022Z,14.40
2023-11-18T09:11:16.841Z,13.98
2023-11-18T09:13:50.020Z,14.65
2023-11-18T09:16:22.144Z,13.98
2023-11-18T09:18:52.780Z,13.18
2023-11-18T09:21:26.442Z,13.13
2023-11-18T09:23:57.969Z,14.80
2023-11-18T09:26:31.682Z,13.55
2023-11-18T09:29:03.223Z,12.32
2023-11-18T09:31:35.088Z,14.52
2023-11-18T09:34:08.067Z,12.43
2023-11-18T09:36:41.400Z,11.48
2023-11-18T09:39:11.099Z,12.63
2023-11-18T09:41:42.293Z,11.77
2023-11-18T09:44:13.650Z,12.13
2023-11-18T09:46:57.887Z,11.80
2023-11-18T09:49:35.545Z,12.55
2023-11-18T09:52:10.538Z,12.77
2023-11-18T09:54:54.273Z,12.55
2023-11-18T09:57:36.455Z,10.10
2023-11-18T10:00:41.681Z,10.00
2023-11-18T10:03:22.161Z,10.90
2023-11-18T10:05:59.482Z,12.20
2023-11-18T10:08:33.760Z,10.38
2023-11-18T10:11:15.757Z,12.30
2023-11-18T10:13:53.211Z,11.40
2023-11-18T10:16:28.546Z,11.68
2023-11-18T10:19:11.211Z,11.77
2023-11-18T10:21:47.666Z,11.43
2023-11-18T10:24:22.018Z,11.35
2023-11-18T10:26:59.599Z,11.85
2023-11-18T10:29:32.543Z,10.55
2023-11-18T10:32:21.306Z,12.45
2023-11-18T10:35:04.150Z,10.95
2023-11-18T10:37:46.463Z,9.18
2023-11-18T10:40:26.024Z,9.25
2023-11-18T10:43:03.325Z,8.13
2023-11-18T10:45:48.263Z,8.18
2023-11-18T10:48:29.250Z,7.30
2023-11-18T10:51:04.150Z,9.20
2023-11-18T10:53:41.559Z,7.72
2023-11-18T10:56:28.816Z,7.65
2023-11-18T10:59:03.085Z,6.85
2023-11-18T11:01:49.013Z,7.15
2023-11-18T11:04:25.408Z,6.45
2023-11-18T11:07:02.276Z,6.82
2023-11-18T11:09:37.860Z,6.85
2023-11-18T11:12:19.572Z,5.25
2023-11-18T11:15:04.029Z,6.50
2023-11-18T11:17:43.969Z,8.30
2023-11-18T11:20:25.688Z,5.82
2023-11-18T11:23:10.535Z,6.35
2023-11-18T11:25:52.102Z,7.15
2023-11-18T11:28:25.002Z,6.57
2023-11-18T11:31:08.099Z,6.45
2023-11-18T11:33:49.664Z,5.32
2023-11-18T11:36:25.464Z,7.22
2023-11-18T11:38:57.639Z,6.32
2023-11-18T11:41:29.452Z,7.13
2023-11-18T11:43:59.712Z,6.68
2023-11-18T11:46:35.201Z,7.20
2023-11-18T11:49:16.858Z,5.97
2023-11-18T11:51:51.376Z,6.72
2023-11-18T11:54:30.746Z,6.35
2023-11-18T11:57:02.625Z,6.68
2023-11-18T12:00:02.226Z,7.60
2023-11-18T12:02:34.053Z,7.93
2023-11-18T12:05:08.715Z,7.00
2023-11-18T12:07:44.438Z,7.90
2023-11-18T12:10:22.417Z,7.07
2023-11-18T12:12:53.678Z,6.43
2023-11-18T12:15:59.176Z,5.30
2023-11-18T12:18:28.975Z,5.50
2023-11-18T12:21:03.622Z,4.70
2023-11-18T12:23:33.235Z,4.88
2023-11-18T12:26:04.668Z,4.35
2023-11-18T12:28:37.170Z,5.05
2023-11-18T12:31:16.883Z,3.40
2023-11-18T12:34:11.130Z,3.03
2023-11-18T12:37:57.773Z,3.15
2023-11-18T12:41:06.364Z,3.55
2023-11-18T12:43:51.561Z,2.60
2023-11-18T12:46:54.661Z,2.67
2023-11-18T12:49:26.546Z,2.88
2023-11-18T12:51:58.604Z,3.78
2023-11-18T12:54:29.945Z,2.90
2023-11-18T12:56:59.388Z,2.45
2023-11-18T12:59:31.758Z,3.00
2023-11-18T13:02:05.656Z,2.47
2023-11-18T13:04:35.592Z,3.50
2023-11-18T13:07:17.391Z,4.10
2023-11-18T13:09:54.102Z,3.45
2023-11-18T13:15:13.696Z,3.90
2023-11-18T13:17:42.645Z,5.18
2023-11-18T13:20:15.556Z,6.07
2023-11-18T13:22:48.302Z,6.38
2023-11-18T13:25:18.699Z,6.07
2023-11-18T13:27:47.893Z,5.65
2023-11-18T13:30:18.457Z,6.07
2023-11-18T13:32:47.391Z,5.65
2023-11-18T13:35:20.126Z,5.07
2023-11-18T13:37:54.771Z,4.93
2023-11-18T13:40:25.225Z,4.90
2023-11-18T13:43:06.479Z,5.68
2023-11-18T13:45:38.486Z,4.85
2023-11-18T13:48:09.679Z,4.95
2023-11-18T13:50:38.697Z,4.60
2023-11-18T13:53:09.361Z,4.63
2023-11-18T13:55:40.138Z,3.65
2023-11-18T13:58:11.982Z,5.15
2023-11-18T14:00:40.532Z,4.55
2023-11-18T14:03:09.246Z,5.25
2023-11-18T14:05:38.454Z,3.75
2023-11-18T14:08:11.027Z,4.78
2023-11-18T14:10:42.382Z,4.90
2023-11-18T14:13:14.130Z,4.97
2023-11-18T14:15:45.291Z,4.10
2023-11-18T14:18:15.586Z,3.35
2023-11-18T14:20:43.980Z,3.92
2023-11-18T14:23:12.518Z,4.28
2023-11-18T14:25:42.875Z,3.38
2023-11-18T14:28:11.034Z,3.90
2023-11-18T14:30:39.439Z,3.40
2023-11-18T14:33:08.120Z,4.07
2023-11-18T14:35:36.499Z,3.58
2023-11-18T14:38:06.396Z,3.38
2023-11-18T14:40:34.725Z,4.43
2023-11-18T14:43:05.831Z,3.33
2023-11-18T14:45:33.954Z,3.75
2023-11-18T14:48:02.211Z,3.33
2023-11-18T14:50:31.160Z,2.88
2023-11-18T14:53:01.678Z,3.08
2023-11-18T14:55:31.113Z,3.42
2023-11-18T14:57:59.380Z,3.92
2023-11-18T15:00:33.191Z,2.60
2023-11-18T15:03:02.194Z,3.15
2023-11-18T15:05:32.137Z,3.25
2023-11-18T15:08:00.557Z,3.33
2023-11-18T15:10:30.383Z,2.95
2023-11-18T15:13:02.499Z,2.90
2023-11-18T15:15:35.254Z,3.25
2023-11-18T15:18:07.101Z,3.00
2023-11-18T15:20:35.538Z,3.13
2023-11-18T15:23:05.679Z,4.88
2023-11-18T15:25:35.366Z,4.57
2023-11-18T15:28:04.971Z,3.28
2023-11-18T15:30:34.515Z,2.75
2023-11-18T15:33:03.005Z,2.05
2023-11-18T15:35:31.757Z,2.72
2023-11-18T15:38:00.061Z,2.90
2023-11-18T15:40:28.417Z,1.98
2023-11-18T15:42:56.966Z,3.83
2023-11-18T15:45:27.745Z,3.30
2023-11-18T15:48:00.520Z,1.92
2023-11-18T15:50:30.380Z,2.72
2023-11-18T15:52:58.745Z,2.30
2023-11-18T15:55:28.080Z,2.90
2023-11-18T15:57:56.000Z,2.05
2023-11-18T16:00:26.790Z,1.88
2023-11-18T16:03:02.242Z,1.95
2023-11-18T16:05:35.350Z,2.22
2023-11-18T16:08:09.638Z,2.30
2023-11-18T16:10:38.631Z,2.08
2023-11-18T16:13:07.860Z,1.45
2023-11-18T16:15:36.961Z,1.75
2023-11-18T16:18:06.932Z,2.45
2023-11-18T16:20:35.895Z,2.03
2023-11-18T16:23:05.707Z,2.53
2023-11-18T16:25:36.873Z,2.15
2023-11-18T16:28:08.551Z,2.40
2023-11-18T16:30:38.636Z,1.77
2023-11-18T16:33:09.196Z,2.53
2023-11-18T16:35:38.205Z,2.45
2023-11-18T16:38:06.735Z,1.95
2023-11-18T16:40:35.649Z,2.05
2023-11-18T16:43:04.464Z,1.52
2023-11-18T16:45:33.114Z,1.85
2023-11-18T16:48:01.408Z,1.92
2023-11-18T16:50:31.206Z,1.63
2023-11-18T16:53:00.806Z,2.38
2023-11-18T16:55:32.238Z,1.83
2023-11-18T16:58:02.577Z,2.17
2023-11-18T17:00:33.400Z,1.90
2023-11-18T17:03:01.653Z,2.47
2023-11-18T17:05:32.827Z,1.83
2023-11-18T17:08:02.722Z,1.75
2023-11-18T17:10:31.635Z,2.83
2023-11-18T17:13:02.033Z,2.50
2023-11-18T17:15:30.905Z,2.15
2023-11-18T17:18:03.166Z,2.65
2023-11-18T17:20:34.064Z,2.58
2023-11-18T17:23:03.717Z,1.85
2023-11-18T17:25:32.146Z,2.58
2023-11-18T17:28:01.333Z,2.25
2023-11-18T17:30:35.657Z,2.53
2023-11-18T17:33:03.881Z,2.13
2023-11-18T17:35:33.596Z,3.17
2023-11-18T17:38:01.728Z,3.35
2023-11-18T17:40:29.837Z,2.97
2023-11-18T17:42:58.051Z,3.50
2023-11-18T17:45:26.258Z,2.63
2023-11-18T17:47:54.495Z,2.67
2023-11-18T17:50:22.988Z,3.95
2023-11-18T17:52:52.716Z,2.72
2023-11-18T17:55:21.134Z,2.63
2023-11-18T17:57:49.670Z,2.95
2023-11-18T18:00:23.404Z,2.70
2023-11-18T18:02:53.699Z,2.90
2023-11-18T18:05:24.367Z,3.95
2023-11-18T18:07:54.180Z,3.80
2023-11-18T18:10:28.427Z,3.50
2023-11-18T18:12:56.964Z,3.28
2023-11-18T18:15:27.506Z,3.17
2023-11-18T18:17:56.027Z,2.88
2023-11-18T18:20:24.694Z,2.83
2023-11-18T18:22:54.577Z,3.35
2023-11-18T18:25:22.819Z,2.92
2023-11-18T18:27:52.030Z,3.72
2023-11-18T18:30:21.052Z,2.45
2023-11-18T18:32:50.317Z,3.03
2023-11-18T18:35:19.842Z,2.92
2023-11-18T18:37:48.290Z,2.58
2023-11-18T18:40:20.046Z,3.90
2023-11-18T18:42:48.343Z,2.47
2023-11-18T18:45:16.611Z,3.83
2023-11-18T18:47:44.807Z,2.63
2023-11-18T18:50:14.016Z,3.13
2023-11-18T18:52:42.489Z,2.75
2023-11-18T18:55:11.646Z,2.55
2023-11-18T18:57:41.163Z,3.10
2023-11-18T19:00:13.285Z,3.38
2023-11-18T19:02:43.049Z,2.88
2023-11-18T19:05:14.260Z,2.70
2023-11-18T19:07:42.981Z,2.95
2023-11-18T19:10:12.470Z,3.05
2023-11-18T19:12:43.339Z,3.10
2023-11-18T19:15:17.140Z,2.88
2023-11-18T19:17:46.745Z,4.03
2023-11-18T19:20:15.672Z,3.13
2023-11-18T19:22:44.880Z,2.60
2023-11-18T19:25:14.000Z,2.85
2023-11-18T19:27:44.970Z,2.42
2023-11-18T19:30:14.236Z,3.03
2023-11-18T19:32:43.074Z,2.78
2023-11-18T19:35:13.562Z,3.92
2023-11-18T19:37:42.071Z,3.08
2023-11-18T19:40:12.302Z,3.35
2023-11-18T19:42:40.563Z,2.97
2023-11-18T19:45:14.019Z,2.65
2023-11-18T19:47:42.572Z,3.47
2023-11-18T19:50:13.500Z,4.10
2023-11-18T19:52:42.174Z,4.15
2023-11-18T19:55:11.375Z,3.53
2023-11-18T19:57:39.530Z,3.45
2023-11-18T20:00:13.028Z,3.33
2023-11-18T20:02:43.002Z,3.78
2023-11-18T20:05:11.449Z,4.15
2023-11-18T20:07:39.924Z,3.40
2023-11-18T20:10:13.307Z,4.00
2023-11-18T20:12:41.820Z,3.38
2023-11-18T20:15:13.366Z,4.93
2023-11-18T20:17:46.309Z,3.88
2023-11-18T20:20:15.633Z,2.92
2023-11-18T20:22:43.869Z,2.92
2023-11-18T20:25:12.299Z,2.92
2023-11-18T20:27:41.074Z,3.97
2023-11-18T20:30:13.534Z,2.85
2023-11-18T20:32:42.316Z,3.35
2023-11-18T20:35:11.490Z,2.72
2023-11-18T20:37:40.714Z,2.83
2023-11-18T20:40:12.512Z,2.35
2023-11-18T20:42:41.745Z,2.13
2023-11-18T20:45:15.282Z,2.30
2023-11-18T20:47:44.119Z,2.17
2023-11-18T20:50:14.608Z,2.10
2023-11-18T20:52:43.495Z,2.00
2023-11-18T20:55:12.034Z,2.17
2023-11-18T20:57:40.870Z,2.35
2023-11-18T21:00:15.262Z,2.70
2023-11-18T21:02:43.727Z,1.83
2023-11-18T21:05:13.136Z,1.98
2023-11-18T21:07:41.459Z,1.60
2023-11-18T21:10:17.211Z,1.45
2023-11-18T21:12:46.275Z,1.52
2023-11-18T21:15:16.041Z,1.35
2023-11-18T21:17:44.471Z,1.33
2023-11-18T21:20:14.192Z,1.38
2023-11-18T21:22:43.214Z,1.90
2023-11-18T21:25:12.557Z,1.60
2023-11-18T21:27:41.056Z,1.77
2023-11-18T21:30:11.226Z,1.90
2023-11-18T21:32:43.755Z,1.90
2023-11-18T21:35:15.179Z,1.90
2023-11-18T21:37:43.478Z,1.60
2023-11-18T21:40:13.908Z,1.40
2023-11-18T21:42:42.596Z,1.80
2023-11-18T21:45:13.176Z,1.90
2023-11-18T21:47:46.337Z,1.42
2023-11-18T21:50:15.369Z,1.45
2023-11-18T21:52:44.640Z,1.35
2023-11-18T21:55:14.181Z,1.33
2023-11-18T21:57:42.780Z,1.38
2023-11-18T22:00:13.954Z,1.90
2023-11-18T22:02:45.284Z,1.67
2023-11-18T22:05:15.559Z,1.13
2023-11-18T22:07:44.018Z,1.08
2023-11-18T22:10:16.418Z,1.10
2023-11-18T22:12:45.116Z,1.02
2023-11-18T22:15:16.148Z,1.20
2023-11-18T22:17:46.525Z,1.25
2023-11-18T22:20:17.546Z,1.40
2023-11-18T22:22:50.093Z,1.55
2023-11-18T22:25:18.722Z,1.45
2023-11-18T22:27:48.750Z,1.15
2023-11-18T22:30:18.278Z,1.67
2023-11-18T22:32:48.892Z,1.38
2023-11-18T22:35:20.243Z,1.13
2023-11-18T22:37:48.706Z,1.52
2023-11-18T22:40:17.963Z,1.67
2023-11-18T22:42:46.780Z,1.08
2023-11-18T22:45:18.165Z,1.75
2023-11-18T22:47:51.253Z,1.15
2023-11-18T22:50:23.096Z,1.05
2023-11-18T22:52:51.636Z,1.30
2023-11-18T22:55:20.850Z,1.10
2023-11-18T22:57:49.186Z,0.90
2023-11-18T23:00:33.121Z,0.95
2023-11-18T23:03:05.958Z,1.23
2023-11-18T23:05:37.116Z,1.20
2023-11-18T23:08:08.913Z,0.95
2023-11-18T23:10:39.567Z,0.80
2023-11-18T23:13:09.126Z,0.90
2023-11-18T23:15:38.058Z,1.17
2023-11-18T23:18:08.891Z,0.70
2023-11-18T23:20:37.605Z,0.80
2023-11-18T23:23:06.182Z,0.70
2023-11-18T23:25:35.038Z,0.80
2023-11-18T23:28:06.287Z,1.00
2023-11-18T23:30:35.904Z,0.85
2023-11-18T23:33:05.511Z,0.73
2023-11-18T23:35:35.163Z,0.95
2023-11-18T23:38:04.300Z,0.85
2023-11-18T23:40:34.397Z,1.08
2023-11-18T23:43:02.748Z,0.88
2023-11-18T23:45:32.174Z,1.00
2023-11-18T23:48:00.551Z,1.15
2023-11-18T23:50:32.407Z,0.50
2023-11-18T23:53:03.562Z,0.50
2023-11-18T23:55:33.247Z,0.90
2023-11-18T23:58:02.050Z,0.88
